createdAt,value
2022-09-01T00:00:49.029Z,66.95
2022-09-01T00:03:19.704Z,67.45
2022-09-01T00:05:46.271Z,67.87
2022-09-01T00:08:16.290Z,67.73
2022-09-01T00:10:45.181Z,68.56
2022-09-01T00:13:11.534Z,68.54
2022-09-01T00:15:37.938Z,68.10
2022-09-01T00:18:04.497Z,68.16
2022-09-01T00:20:30.989Z,68.81
2022-09-01T00:22:57.522Z,69.14
2022-09-01T00:25:24.744Z,69.26
2022-09-01T00:27:51.456Z,69.53
2022-09-01T00:30:21.674Z,70.04
2022-09-01T00:32:48.110Z,70.69
2022-09-01T00:35:16.553Z,70.53
2022-09-01T00:37:42.929Z,71.06
2022-09-01T00:40:10.525Z,70.37
2022-09-01T00:42:37.659Z,70.35
2022-09-01T00:45:04.725Z,69.78
2022-09-01T00:47:31.077Z,71.00
2022-09-01T00:49:58.127Z,70.88
2022-09-01T00:52:24.482Z,71.03
2022-09-01T00:54:53.648Z,71.23
2022-09-01T00:57:20.604Z,71.30
2022-09-01T00:59:49.960Z,70.98
2022-09-01T01:02:16.720Z,70.70
2022-09-01T01:04:43.739Z,71.43
2022-09-01T01:07:10.813Z,70.62
2022-09-01T01:09:40.244Z,70.20
2022-09-01T01:12:07.443Z,70.36
2022-09-01T01:14:34.801Z,70.71
2022-09-01T01:17:01.249Z,70.41
2022-09-01T01:19:55.508Z,69.12
2022-09-01T01:22:58.477Z,69.28
2022-09-01T01:25:25.484Z,69.09
2022-09-01T01:27:52.058Z,68.63
2022-09-01T01:30:20.784Z,68.65
2022-09-01T01:32:49.390Z,67.66
2022-09-01T01:35:16.793Z,68.34
2022-09-01T01:37:49.042Z,67.48
2022-09-01T01:40:17.037Z,68.20
2022-09-01T01:42:47.917Z,68.20
2022-09-01T01:45:17.165Z,67.78
2022-09-01T01:47:48.014Z,68.17
2022-09-01T01:50:14.604Z,67.12
2022-09-01T01:52:41.914Z,67.49
2022-09-01T01:55:12.543Z,66.79
2022-09-01T01:57:40.065Z,67.71
2022-09-01T02:00:07.654Z,66.34
2022-09-01T02:02:34.071Z,67.42
2022-09-01T02:05:00.528Z,67.79
2022-09-01T02:07:27.432Z,69.04
2022-09-01T02:09:57.904Z,68.30
2022-09-01T02:12:25.182Z,68.39
2022-09-01T02:14:54.716Z,69.10
2022-09-01T02:17:21.573Z,69.30
2022-09-01T02:19:48.458Z,69.65
2022-09-01T02:22:14.961Z,71.75
2022-09-01T02:24:46.439Z,71.44
2022-09-01T02:27:12.907Z,72.28
2022-09-01T02:29:43.182Z,70.90
2022-09-01T02:32:11.596Z,71.57
2022-09-01T02:34:39.933Z,72.45
2022-09-01T02:37:06.314Z,72.06
2022-09-01T02:39:33.462Z,71.90
2022-09-01T02:42:01.259Z,72.49
2022-09-01T02:44:29.089Z,71.25
2022-09-01T02:46:55.958Z,72.61
2022-09-01T02:49:25.724Z,72.36
2022-09-01T02:51:53.946Z,71.79
2022-09-01T02:54:24.536Z,72.15
2022-09-01T02:56:54.350Z,73.30
2022-09-01T02:59:21.944Z,72.65
2022-09-01T03:01:49.785Z,73.69
2022-09-01T03:04:17.488Z,72.15
2022-09-01T03:06:44.238Z,72.49
2022-09-01T03:09:13.523Z,73.72
2022-09-01T03:11:40.951Z,73.04
2022-09-01T03:14:08.037Z,72.00
2022-09-01T03:16:34.684Z,71.71
2022-09-01T03:19:03.178Z,72.59
2022-09-01T03:21:32.024Z,70.26
2022-09-01T03:23:59.326Z,71.64
2022-09-01T03:26:25.746Z,71.99
2022-09-01T03:28:52.267Z,70.76
2022-09-01T03:31:19.845Z,71.15
2022-09-01T03:33:46.399Z,69.66
2022-09-01T03:36:19.243Z,70.70
2022-09-01T03:38:48.763Z,70.03
2022-09-01T03:41:17.742Z,69.92
2022-09-01T03:43:47.073Z,70.16
2022-09-01T03:46:20.123Z,71.10
2022-09-01T03:48:52.062Z,70.73
2022-09-01T03:51:18.994Z,71.88
2022-09-01T03:53:45.998Z,73.12
2022-09-01T03:56:13.957Z,74.09
2022-09-01T03:58:41.736Z,73.47
2022-09-01T04:01:08.439Z,73.60
2022-09-01T04:03:41.144Z,73.69
2022-09-01T04:06:09.164Z,73.79
2022-09-01T04:08:36.249Z,74.54
2022-09-01T04:11:10.794Z,75.57
2022-09-01T04:13:39.204Z,74.46
2022-09-01T04:16:26.005Z,74.38
2022-09-01T04:18:52.428Z,73.92
2022-09-01T04:21:20.069Z,73.78
2022-09-01T04:23:47.029Z,74.26
2022-09-01T04:26:20.309Z,74.37
2022-09-01T04:28:48.267Z,74.17
2022-09-01T04:31:17.729Z,74.35
2022-09-01T04:33:46.629Z,73.53
2022-09-01T04:36:19.553Z,74.58
2022-09-01T04:38:47.086Z,74.77
2022-09-01T04:41:17.698Z,75.22
2022-09-01T04:43:45.296Z,73.37
2022-09-01T04:46:14.321Z,73.23
2022-09-01T04:48:46.096Z,73.70
2022-09-01T04:51:13.122Z,74.55
2022-09-01T04:53:40.291Z,74.02
2022-09-01T04:56:07.514Z,73.23
2022-09-01T04:58:34.113Z,73.82
2022-09-01T05:01:06.276Z,72.88
2022-09-01T05:03:32.683Z,73.61
2022-09-01T05:06:03.774Z,73.06
2022-09-01T05:08:35.113Z,73.90
2022-09-01T05:11:06.174Z,72.99
2022-09-01T05:13:32.804Z,74.06
2022-09-01T05:16:01.892Z,73.65
2022-09-01T05:18:28.745Z,72.64
2022-09-01T05:20:55.565Z,73.69
2022-09-01T05:23:22.025Z,73.21
2022-09-01T05:25:49.753Z,72.96
2022-09-01T05:28:17.871Z,72.17
2022-09-01T05:30:45.699Z,72.46
2022-09-01T05:33:19.891Z,72.43
2022-09-01T05:35:55.818Z,73.21
2022-09-01T05:38:22.984Z,72.87
2022-09-01T05:41:00.691Z,72.55
2022-09-01T05:43:27.752Z,73.76
2022-09-01T05:46:06.133Z,73.39
2022-09-01T05:48:39.760Z,73.74
2022-09-01T05:51:17.633Z,73.72
2022-09-01T05:53:56.427Z,73.98
2022-09-01T05:56:24.050Z,73.87
2022-09-01T06:01:40.942Z,74.53
2022-09-01T06:04:08.515Z,73.95
2022-09-01T06:06:55.090Z,73.79
2022-09-01T06:09:24.500Z,73.75
2022-09-01T06:11:51.858Z,75.66
2022-09-01T06:14:18.232Z,78.54
2022-09-01T06:16:45.827Z,76.95
2022-09-01T06:19:12.635Z,75.06
2022-09-01T06:21:39.772Z,74.92
2022-09-01T06:24:07.655Z,74.69
2022-09-01T06:26:35.874Z,75.25
2022-09-01T06:29:04.662Z,75.75
2022-09-01T06:31:35.125Z,75.12
2022-09-01T06:34:03.189Z,75.11
2022-09-01T06:36:35.080Z,73.55
2022-09-01T06:39:01.614Z,74.14
2022-09-01T06:41:28.549Z,74.11
2022-09-01T06:43:55.275Z,73.91
2022-09-01T06:46:23.662Z,76.03
2022-09-01T06:48:50.386Z,75.13
2022-09-01T06:51:21.999Z,75.10
2022-09-01T06:53:56.412Z,73.29
2022-09-01T06:56:24.175Z,75.34
2022-09-01T06:58:52.321Z,75.54
2022-09-01T07:01:20.323Z,75.08
2022-09-01T07:03:48.058Z,74.75
2022-09-01T07:16:29.737Z,70.87
2022-09-01T07:17:23.250Z,70.84
2022-09-01T07:19:49.911Z,70.33
2022-09-01T07:25:12.000Z,69.19
2022-09-01T07:27:50.387Z,70.13
2022-09-01T07:30:18.982Z,69.33
2022-09-01T07:32:50.508Z,68.68
2022-09-01T07:35:21.145Z,67.66
2022-09-01T07:38:47.501Z,67.28
2022-09-01T07:43:29.805Z,69.34
2022-09-01T07:46:00.483Z,69.93
2022-09-01T07:48:36.711Z,68.50
2022-09-01T07:54:05.610Z,65.50
2022-09-01T07:56:34.269Z,64.82
2022-09-01T07:59:03.056Z,64.16
2022-09-01T08:01:29.523Z,63.91
2022-09-01T08:03:57.635Z,63.47
2022-09-01T08:06:27.851Z,62.83
2022-09-01T08:08:56.995Z,62.92
2022-09-01T08:11:58.169Z,63.79
2022-09-01T08:14:11.828Z,64.54
2022-09-01T08:16:40.071Z,62.60
2022-09-01T08:19:18.577Z,62.99
2022-09-01T08:21:45.034Z,64.37
2022-09-01T08:24:11.394Z,63.24
2022-09-01T08:26:37.811Z,64.99
2022-09-01T08:29:04.963Z,64.58
2022-09-01T08:31:31.417Z,65.63
2022-09-01T08:33:58.961Z,66.67
2022-09-01T08:36:26.053Z,65.36
2022-09-01T08:38:52.966Z,64.97
2022-09-01T08:41:19.359Z,63.79
2022-09-01T08:44:06.477Z,63.46
2022-09-01T08:46:37.569Z,63.76
2022-09-01T08:49:24.779Z,63.06
2022-09-01T08:52:10.710Z,64.01
2022-09-01T08:54:42.601Z,64.01
2022-09-01T08:57:18.351Z,63.95
2022-09-01T08:59:44.825Z,64.46
2022-09-01T09:02:12.038Z,64.26
2022-09-01T09:04:38.548Z,63.59
2022-09-01T09:07:10.637Z,62.97
2022-09-01T09:10:02.683Z,62.93
2022-09-01T09:12:29.077Z,61.50
2022-09-01T09:15:04.371Z,62.54
2022-09-01T09:17:35.295Z,61.77
2022-09-01T09:20:02.110Z,60.53
2022-09-01T09:22:28.610Z,60.92
2022-09-01T09:25:00.130Z,61.00
2022-09-01T09:27:37.468Z,61.58
2022-09-01T09:30:09.584Z,61.87
2022-09-01T09:33:11.739Z,62.47
2022-09-01T09:35:33.326Z,61.80
2022-09-01T09:38:44.408Z,59.69
2022-09-01T09:41:18.859Z,60.28
2022-09-01T09:43:58.401Z,60.69
2022-09-01T09:46:31.568Z,59.39
2022-09-01T09:49:13.003Z,58.63
2022-09-01T09:51:40.807Z,59.92
2022-09-01T09:54:42.452Z,59.21
2022-09-01T09:57:08.829Z,59.49
2022-09-01T10:00:00.740Z,59.05
2022-09-01T10:02:31.869Z,58.44
2022-09-01T10:04:59.440Z,57.95
2022-09-01T10:07:33.818Z,56.91
2022-09-01T10:10:02.218Z,55.95
2022-09-01T10:12:29.736Z,55.23
2022-09-01T10:15:12.596Z,55.36
2022-09-01T10:17:43.634Z,56.44
2022-09-01T10:20:14.965Z,56.55
2022-09-01T10:22:41.498Z,57.33
2022-09-01T10:25:10.382Z,55.64
2022-09-01T10:27:38.761Z,58.22
2022-09-01T10:30:12.595Z,56.32
2022-09-01T10:32:50.768Z,56.61
2022-09-01T10:35:24.113Z,57.60
2022-09-01T10:37:51.441Z,56.93
2022-09-01T10:40:33.409Z,57.05
2022-09-01T10:43:21.001Z,54.44
2022-09-01T10:45:54.938Z,55.66
2022-09-01T10:48:36.624Z,54.03
2022-09-01T10:51:18.242Z,54.21
2022-09-01T10:53:52.144Z,55.74
2022-09-01T10:56:28.849Z,55.10
2022-09-01T11:01:52.904Z,55.60
2022-09-01T11:04:22.516Z,56.61
2022-09-01T11:09:43.369Z,54.10
2022-09-01T11:12:29.089Z,54.55
2022-09-01T11:14:56.391Z,54.82
2022-09-01T11:17:25.380Z,55.24
2022-09-01T11:19:58.116Z,55.27
2022-09-01T11:22:30.308Z,54.44
2022-09-01T11:25:02.485Z,53.62
2022-09-01T11:27:50.070Z,55.17
2022-09-01T11:30:18.176Z,55.03
2022-09-01T11:32:47.256Z,55.25
2022-09-01T11:35:21.737Z,54.64
2022-09-01T11:37:52.085Z,55.76
2022-09-01T11:40:36.988Z,55.15
2022-09-01T11:43:10.609Z,54.19
2022-09-01T11:45:54.228Z,53.64
2022-09-01T11:48:20.752Z,54.44
2022-09-01T11:50:56.670Z,53.11
2022-09-01T11:56:12.242Z,51.87
2022-09-01T11:58:41.816Z,53.12
2022-09-01T12:01:14.337Z,53.60
2022-09-01T12:03:41.218Z,52.59
2022-09-01T12:06:09.643Z,55.71
2022-09-01T12:08:40.872Z,54.34
2022-09-01T12:11:08.879Z,52.92
2022-09-01T12:13:36.174Z,53.32
2022-09-01T12:16:18.069Z,53.70
2022-09-01T12:18:47.490Z,55.06
2022-09-01T12:21:33.767Z,53.28
2022-09-01T12:24:12.387Z,55.18
2022-09-01T12:26:39.028Z,54.30
2022-09-01T12:29:07.339Z,53.29
2022-09-01T12:31:34.373Z,52.68
2022-09-01T12:34:04.596Z,51.69
2022-09-01T12:36:33.339Z,52.02
2022-09-01T12:39:18.055Z,51.87
2022-09-01T12:42:00.915Z,52.95
2022-09-01T12:44:34.494Z,53.78
2022-09-01T12:47:06.794Z,53.87
2022-09-01T12:49:50.257Z,55.65
2022-09-01T12:52:19.989Z,54.36
2022-09-01T12:54:47.491Z,55.03
2022-09-01T12:57:27.638Z,57.34
2022-09-01T13:00:06.027Z,56.31
2022-09-01T13:02:34.780Z,55.70
2022-09-01T13:05:19.895Z,56.17
2022-09-01T13:07:46.365Z,54.82
2022-09-01T13:10:12.844Z,57.21
2022-09-01T13:12:42.982Z,56.15
2022-09-01T13:15:09.896Z,55.12
2022-09-01T13:17:38.360Z,55.39
2022-09-01T13:20:07.988Z,56.60
2022-09-01T13:22:35.107Z,55.61
2022-09-01T13:25:02.267Z,55.46
2022-09-01T13:27:28.725Z,55.09
2022-09-01T13:29:55.767Z,56.07
2022-09-01T13:32:24.088Z,55.76
2022-09-01T13:34:52.117Z,55.37
2022-09-01T13:37:19.291Z,56.10
2022-09-01T13:39:47.177Z,55.42
2022-09-01T13:42:15.893Z,56.47
2022-09-01T13:44:42.476Z,55.78
2022-09-01T13:50:12.038Z,57.53
2022-09-01T13:52:47.266Z,58.52
2022-09-01T13:55:23.745Z,59.29
2022-09-01T13:57:53.879Z,58.75
2022-09-01T14:00:24.227Z,59.34
2022-09-01T14:02:52.976Z,58.09
2022-09-01T14:05:20.936Z,60.57
2022-09-01T14:07:48.818Z,60.02
2022-09-01T14:10:15.563Z,59.31
2022-09-01T14:12:42.216Z,55.95
2022-09-01T14:15:11.699Z,55.93
2022-09-01T14:17:39.870Z,57.58
2022-09-01T14:20:07.691Z,56.01
2022-09-01T14:22:38.321Z,56.68
2022-09-01T14:25:05.503Z,55.77
2022-09-01T14:27:31.934Z,56.11
2022-09-01T14:29:58.343Z,56.28
2022-09-01T14:32:26.675Z,56.88
2022-09-01T14:34:53.682Z,56.66
2022-09-01T14:37:21.305Z,57.28
2022-09-01T14:39:51.559Z,56.83
2022-09-01T14:44:45.945Z,56.58
2022-09-01T14:47:12.677Z,56.47
2022-09-01T14:49:46.678Z,56.11
2022-09-01T14:52:14.251Z,56.93
2022-09-01T14:54:42.392Z,57.68
2022-09-01T14:59:55.256Z,56.79
2022-09-01T15:02:21.977Z,57.62
2022-09-01T15:04:48.425Z,57.67
2022-09-01T15:07:15.226Z,58.16
2022-09-01T15:09:42.462Z,58.47
2022-09-01T15:12:09.515Z,58.32
2022-09-01T15:14:36.221Z,58.18
2022-09-01T15:17:02.683Z,59.82
2022-09-01T15:19:29.137Z,59.58
2022-09-01T15:21:56.107Z,59.73
2022-09-01T15:24:23.143Z,60.41
2022-09-01T15:26:49.711Z,59.40
2022-09-01T15:29:16.040Z,58.53
2022-09-01T15:31:43.717Z,60.21
2022-09-01T15:34:11.028Z,62.08
2022-09-01T15:36:39.927Z,63.22
2022-09-01T15:39:08.010Z,62.30
2022-09-01T15:41:34.759Z,60.74
2022-09-01T15:44:02.109Z,60.42
2022-09-01T15:46:32.647Z,61.17
2022-09-01T15:49:00.112Z,60.41
2022-09-01T15:51:35.151Z,59.95
2022-09-01T15:54:06.525Z,60.90
2022-09-01T15:56:33.312Z,59.80
2022-09-01T15:59:01.268Z,61.39
2022-09-01T16:01:29.485Z,60.42
2022-09-01T16:03:56.245Z,61.03
2022-09-01T16:06:23.357Z,61.63
2022-09-01T16:08:50.194Z,61.02
2022-09-01T16:11:16.617Z,60.97
2022-09-01T16:13:43.225Z,60.45
2022-09-01T16:16:30.792Z,60.19
2022-09-01T16:18:57.323Z,60.23
2022-09-01T16:21:42.435Z,59.24
2022-09-01T16:24:10.677Z,60.07
2022-09-01T16:26:37.684Z,59.17
2022-09-01T16:29:09.330Z,59.81
2022-09-01T16:31:38.835Z,59.54
2022-09-01T16:34:15.732Z,59.76
2022-09-01T16:36:42.076Z,59.05
2022-09-01T16:39:23.774Z,58.53
2022-09-01T16:41:53.208Z,58.51
2022-09-01T16:44:22.607Z,59.46
2022-09-01T16:46:53.019Z,60.64
2022-09-01T16:49:38.245Z,60.38
2022-09-01T16:52:05.567Z,58.52
2022-09-01T16:54:31.963Z,59.98
2022-09-01T16:57:21.634Z,59.41
2022-09-01T16:59:59.408Z,59.23
2022-09-01T17:02:44.221Z,60.55
2022-09-01T17:05:24.488Z,61.63
2022-09-01T17:08:07.589Z,61.29
2022-09-01T17:10:38.903Z,60.49
2022-09-01T17:13:20.093Z,59.98
2022-09-01T17:15:50.433Z,61.11
2022-09-01T17:18:22.490Z,62.51
2022-09-01T17:20:55.031Z,62.27
2022-09-01T17:23:28.522Z,59.07
2022-09-01T17:25:58.648Z,58.58
2022-09-01T17:28:47.195Z,60.00
2022-09-01T17:31:16.998Z,60.22
2022-09-01T17:33:43.426Z,60.78
2022-09-01T17:36:18.637Z,61.61
2022-09-01T17:39:07.712Z,61.41
2022-09-01T17:41:47.046Z,61.09
2022-09-01T17:44:17.915Z,62.37
2022-09-01T17:46:49.743Z,62.67
2022-09-01T17:49:35.855Z,62.68
2022-09-01T17:52:15.174Z,63.24
2022-09-01T17:54:50.099Z,62.35
2022-09-01T17:57:16.441Z,62.32
2022-09-01T17:59:45.654Z,62.91
2022-09-01T18:02:21.327Z,62.90
2022-09-01T18:04:52.573Z,63.62
2022-09-01T18:07:34.291Z,63.79
2022-09-01T18:10:02.463Z,64.80
2022-09-01T18:12:30.927Z,64.32
2022-09-01T18:15:26.781Z,64.38
2022-09-01T18:18:11.649Z,64.25
2022-09-01T18:20:46.411Z,63.93
2022-09-01T18:23:15.730Z,64.97
2022-09-01T18:25:48.074Z,64.30
2022-09-01T18:28:15.141Z,63.81
2022-09-01T18:31:04.710Z,64.45
2022-09-01T18:33:49.320Z,65.53
2022-09-01T18:36:24.849Z,64.94
2022-09-01T18:38:57.842Z,65.15
2022-09-01T18:41:35.219Z,65.40
2022-09-01T18:44:10.659Z,65.15
2022-09-01T18:46:53.439Z,65.11
2022-09-01T18:49:32.315Z,65.49
2022-09-01T18:52:06.817Z,66.12
2022-09-01T18:54:36.527Z,65.84
2022-09-01T18:57:06.961Z,65.81
2022-09-01T18:59:36.956Z,65.45
2022-09-01T19:02:22.492Z,66.33
2022-09-01T19:04:52.701Z,67.05
2022-09-01T19:07:22.103Z,66.26
2022-09-01T19:10:03.838Z,66.20
2022-09-01T19:12:33.295Z,66.47
2022-09-01T19:15:16.935Z,66.63
2022-09-01T19:17:43.644Z,66.30
2022-09-01T19:20:15.191Z,68.25
2022-09-01T19:22:50.765Z,67.51
2022-09-01T19:25:34.049Z,66.74
2022-09-01T19:28:21.201Z,67.29
2022-09-01T19:30:50.777Z,68.37
2022-09-01T19:33:21.460Z,66.51
2022-09-01T19:35:49.057Z,66.38
2022-09-01T19:38:18.796Z,65.32
2022-09-01T19:40:48.067Z,66.54
2022-09-01T19:43:18.033Z,65.88
2022-09-01T19:45:45.971Z,65.88
2022-09-01T19:48:15.873Z,65.86
2022-09-01T19:50:56.750Z,66.11
2022-09-01T19:53:33.902Z,65.88
2022-09-01T19:56:15.837Z,65.54
2022-09-01T20:02:21.152Z,65.49
2022-09-01T20:04:57.089Z,65.45
2022-09-01T20:07:33.027Z,65.68
2022-09-01T20:10:18.190Z,64.90
2022-09-01T20:12:55.500Z,65.20
2022-09-01T20:15:28.625Z,65.52
2022-09-01T20:17:58.111Z,65.12
2022-09-01T20:20:27.541Z,65.09
2022-09-01T20:23:00.066Z,65.44
2022-09-01T20:25:29.354Z,65.17
2022-09-01T20:28:04.384Z,65.03
2022-09-01T20:30:40.059Z,64.82
2022-09-01T20:33:12.782Z,65.10
2022-09-01T20:35:41.850Z,65.22
2022-09-01T20:38:31.253Z,65.68
2022-09-01T20:41:02.328Z,65.76
2022-09-01T20:43:31.929Z,65.47
2022-09-01T20:45:58.443Z,65.81
2022-09-01T20:48:26.501Z,66.22
2022-09-01T20:50:59.657Z,65.54
2022-09-01T20:53:44.893Z,65.46
2022-09-01T20:56:18.436Z,65.37
2022-09-01T20:58:46.050Z,66.62
2022-09-01T21:01:17.976Z,66.73
2022-09-01T21:03:55.900Z,66.70
2022-09-01T21:06:41.532Z,67.13
2022-09-01T21:09:33.531Z,68.33
2022-09-01T21:12:02.622Z,66.73
2022-09-01T21:14:38.037Z,67.11
2022-09-01T21:17:26.617Z,68.19
2022-09-01T21:19:55.789Z,67.37
2022-09-01T21:22:22.657Z,67.14
2022-09-01T21:24:49.168Z,68.25
2022-09-01T21:27:17.786Z,68.88
2022-09-01T21:29:50.108Z,68.22
2022-09-01T21:32:16.949Z,69.05
2022-09-01T21:34:43.996Z,69.57
2022-09-01T21:37:10.469Z,68.64
2022-09-01T21:39:36.914Z,69.00
2022-09-01T21:42:04.052Z,69.86
2022-09-01T21:44:31.128Z,69.20
2022-09-01T21:46:57.891Z,68.07
2022-09-01T21:49:24.651Z,68.86
2022-09-01T21:51:51.145Z,68.64
2022-09-01T21:54:17.517Z,66.68
2022-09-01T21:56:43.852Z,67.34
2022-09-01T21:59:16.932Z,67.16
2022-09-01T22:01:43.808Z,67.13
2022-09-01T22:04:10.352Z,66.81
2022-09-01T22:06:38.560Z,65.78
2022-09-01T22:09:20.726Z,65.77
2022-09-01T22:11:48.005Z,65.89
2022-09-01T22:14:14.419Z,66.55
2022-09-01T22:16:40.983Z,67.56
2022-09-01T22:19:07.379Z,67.07
2022-09-01T22:21:35.232Z,67.26
2022-09-01T22:24:01.649Z,67.04
2022-09-01T22:26:29.152Z,68.12
2022-09-01T22:28:56.165Z,67.19
2022-09-01T22:31:23.558Z,68.60
2022-09-01T22:33:50.667Z,67.54
2022-09-01T22:36:24.395Z,68.48
2022-09-01T22:38:50.928Z,68.07
2022-09-01T22:41:20.971Z,68.04
2022-09-01T22:43:47.973Z,68.35
2022-09-01T22:46:15.477Z,67.38
2022-09-01T22:48:46.136Z,67.43
2022-09-01T22:51:13.083Z,68.25
2022-09-01T22:53:42.186Z,68.71
2022-09-01T22:56:28.313Z,69.17
2022-09-01T22:58:55.755Z,69.47
2022-09-01T23:01:23.969Z,68.65
2022-09-01T23:03:52.023Z,68.86
2022-09-01T23:06:21.823Z,69.44
2022-09-01T23:08:54.825Z,70.13
2022-09-01T23:11:21.689Z,69.53
2022-09-01T23:13:48.060Z,69.69
2022-09-01T23:16:14.968Z,70.29
2022-09-01T23:18:43.343Z,69.22
2022-09-01T23:21:11.501Z,70.30
2022-09-01T23:23:38.330Z,69.52
2022-09-01T23:26:06.406Z,70.80
2022-09-01T23:28:32.954Z,69.54
2022-09-01T23:30:59.363Z,69.75
2022-09-01T23:33:26.404Z,69.76
2022-09-01T23:35:55.240Z,69.53
2022-09-01T23:38:23.109Z,69.51
2022-09-01T23:40:51.438Z,69.01
2022-09-01T23:43:19.108Z,68.58
2022-09-01T23:45:47.800Z,68.96
2022-09-01T23:48:14.960Z,68.49
2022-09-01T23:50:50.781Z,68.70
2022-09-01T23:53:17.891Z,69.97
2022-09-01T23:55:45.973Z,68.61
2022-09-01T23:58:12.939Z,69.53
